Time;durP1;ratioP1;P1;durP2;ratioP2;P2;SDS_P1;SDS_P2;PMS_P1;PMS_P2;Temp;Humidity;BMP_temperature;BMP_pressure;BME280_temperature;BME280_humidity;BME280_pressure;Samples;Min_cycle;Max_cycle;Signal;HPM_P1;HPM_P2
2024/01/18 00:00:00;;;;;;;18.07;8.93;;;;;;;1.88;100.00;97114.31;12194089;19;20017;-80
2024/01/18 00:04:05;;;;;;;20.05;9.90;;;;;;;1.86;100.00;97116.47;12171201;19;20119;-80
2024/01/18 00:08:07;;;;;;;18.70;9.63;;;;;;;1.87;100.00;97118.91;12191266;19;20011;-79
2024/01/18 00:12:10;;;;;;;18.83;10.15;;;;;;;1.92;100.00;97129.00;12192353;19;20010;-80
2024/01/18 00:16:12;;;;;;;22.95;9.57;;;;;;;1.94;100.00;97140.44;12168731;19;20960;-80
2024/01/18 00:20:14;;;;;;;18.65;8.05;;;;;;;1.94;100.00;97146.66;12189477;19;20030;-79
2024/01/18 00:24:18;;;;;;;14.23;5.97;;;;;;;1.93;100.00;97153.16;12192251;19;20030;-80
2024/01/18 00:28:20;;;;;;;17.27;8.35;;;;;;;1.98;100.00;97155.94;12171964;19;20476;-80
2024/01/18 00:32:23;;;;;;;21.23;9.10;;;;;;;2.00;100.00;97161.94;12191170;19;20494;-81
2024/01/18 00:36:26;;;;;;;18.13;8.98;;;;;;;1.95;100.00;97170.03;12169064;19;20011;-80
2024/01/18 00:40:28;;;;;;;18.73;7.85;;;;;;;1.85;100.00;97180.00;12193335;19;20014;-81
2024/01/18 00:44:30;;;;;;;17.80;8.38;;;;;;;1.78;100.00;97191.88;12195542;19;20007;-80
2024/01/18 00:48:31;;;;;;;17.00;8.55;;;;;;;1.77;100.00;97187.53;12176250;19;20116;-81
2024/01/18 00:52:33;;;;;;;14.90;7.00;;;;;;;1.78;100.00;97196.47;12203521;19;20525;-80
2024/01/18 00:56:35;;;;;;;18.40;7.90;;;;;;;1.75;100.00;97195.09;12200870;19;20010;-81
2024/01/18 01:00:37;;;;;;;15.00;6.60;;;;;;;1.62;100.00;97202.84;12172253;19;20002;-81
2024/01/18 01:04:39;;;;;;;14.90;6.87;;;;;;;1.57;100.00;97206.31;12195560;19;20014;-81
2024/01/18 01:08:41;;;;;;;16.63;7.03;;;;;;;1.52;100.00;97212.53;12209484;19;20255;-81
2024/01/18 01:12:43;;;;;;;15.70;7.33;;;;;;;1.49;100.00;97206.81;12184555;19;20892;-81
2024/01/18 01:16:45;;;;;;;12.57;5.87;;;;;;;1.36;100.00;97227.81;12198220;19;20452;-82
2024/01/18 01:20:46;;;;;;;16.05;6.82;;;;;;;1.39;100.00;97220.25;12204397;19;20014;-82
2024/01/18 01:24:48;;;;;;;15.43;7.43;;;;;;;1.40;100.00;97217.28;12180996;19;20032;-81
2024/01/18 01:28:50;;;;;;;16.23;6.50;;;;;;;1.40;100.00;97227.28;12204884;19;20018;-81
2024/01/18 01:32:52;;;;;;;15.30;7.23;;;;;;;1.34;100.00;97243.53;12206572;19;20656;-82
2024/01/18 01:36:54;;;;;;;14.75;5.93;;;;;;;1.22;100.00;97242.00;12183658;19;20006;-80
2024/01/18 01:40:56;;;;;;;14.00;6.97;;;;;;;1.17;100.00;97237.34;12210387;19;20015;-82
2024/01/18 01:44:58;;;;;;;13.93;6.57;;;;;;;1.22;100.00;97236.56;12209821;19;20393;-82
2024/01/18 01:49:02;;;;;;;14.57;7.03;;;;;;;1.15;100.00;97231.34;12196370;19;20078;-83
2024/01/18 01:53:06;;;;;;;17.60;7.07;;;;;;;1.19;100.00;97247.94;12220233;19;20018;-82
2024/01/18 01:57:08;;;;;;;16.65;7.18;;;;;;;1.27;100.00;97242.06;12219943;19;20006;-82
2024/01/18 02:01:14;;;;;;;18.75;7.95;;;;;;;1.34;100.00;97242.72;12197077;19;20127;-82
2024/01/18 02:05:16;;;;;;;15.83;6.80;;;;;;;1.39;100.00;97250.09;12231389;19;20010;-83
2024/01/18 02:09:18;;;;;;;17.73;7.03;;;;;;;1.39;100.00;97241.94;12249577;19;20015;-83
2024/01/18 02:13:22;;;;;;;16.25;6.85;;;;;;;1.40;100.00;97232.72;12191258;19;20017;-83
2024/01/18 02:17:24;;;;;;;15.70;7.07;;;;;;;1.33;100.00;97230.22;12211652;19;20051;-84
2024/01/18 02:21:26;;;;;;;16.60;7.25;;;;;;;1.35;100.00;97239.75;12191912;19;20370;-84
2024/01/18 02:25:28;;;;;;;16.20;7.77;;;;;;;1.31;100.00;97244.03;12214200;19;20002;-83
2024/01/18 02:29:30;;;;;;;19.30;7.90;;;;;;;1.33;100.00;97254.63;12213902;19;20010;-83
2024/01/18 02:33:33;;;;;;;17.13;7.90;;;;;;;1.31;100.00;97227.75;12192977;19;20018;-82
2024/01/18 02:37:35;;;;;;;19.42;7.38;;;;;;;1.33;100.00;97230.22;12210455;19;20003;-81
2024/01/18 02:41:37;;;;;;;14.87;7.37;;;;;;;1.28;100.00;97222.00;12198321;19;20026;-81
2024/01/18 02:45:39;;;;;;;15.25;7.70;;;;;;;1.29;100.00;97232.63;12177594;19;20019;-81
2024/01/18 02:49:42;;;;;;;14.50;7.20;;;;;;;1.26;100.00;97233.13;12198220;19;20522;-81
2024/01/18 02:53:44;;;;;;;16.10;7.40;;;;;;;1.24;100.00;97234.44;12197974;19;20017;-79
2024/01/18 02:57:45;;;;;;;18.48;9.07;;;;;;;1.27;100.00;97240.19;12176211;19;20027;-80
2024/01/18 03:01:47;;;;;;;17.58;8.15;;;;;;;1.18;100.00;97228.13;12198532;19;20010;-79
2024/01/18 03:05:49;;;;;;;15.80;6.97;;;;;;;1.10;100.00;97218.56;12206728;19;20003;-79
2024/01/18 03:09:51;;;;;;;16.77;7.35;;;;;;;1.09;100.00;97227.75;12194649;19;20055;-80
2024/01/18 03:13:52;;;;;;;17.73;8.03;;;;;;;1.08;100.00;97217.16;12212461;19;20014;-79
2024/01/18 03:17:54;;;;;;;17.23;7.63;;;;;;;1.02;100.00;97221.72;12210626;19;20013;-80
2024/01/18 03:21:56;;;;;;;18.00;7.73;;;;;;;1.07;100.00;97239.91;12198534;19;20010;-79
2024/01/18 03:25:58;;;;;;;16.15;7.75;;;;;;;1.10;100.00;97244.84;12220010;19;20035;-80
2024/01/18 03:30:00;;;;;;;16.50;7.77;;;;;;;1.08;100.00;97250.53;12217536;19;20006;-79
2024/01/18 03:34:02;;;;;;;17.92;8.30;;;;;;;1.05;100.00;97248.31;12205432;19;20036;-80
2024/01/18 03:38:04;;;;;;;16.75;8.27;;;;;;;1.03;100.00;97247.75;12224863;19;20014;-80
2024/01/18 03:42:06;;;;;;;17.40;7.60;;;;;;;1.00;100.00;97253.66;12216553;19;20010;-80
2024/01/18 03:46:15;;;;;;;15.03;7.40;;;;;;;1.04;100.00;97243.13;12188149;19;20015;-80
2024/01/18 03:50:17;;;;;;;17.60;7.97;;;;;;;0.94;100.00;97248.44;12217128;19;20010;-79
2024/01/18 03:54:18;;;;;;;17.07;7.90;;;;;;;0.89;100.00;97244.59;12211568;19;20011;-80
2024/01/18 03:58:20;;;;;;;13.17;6.37;;;;;;;0.81;100.00;97257.75;12189203;19;20010;-81
2024/01/18 04:02:22;;;;;;;19.77;8.17;;;;;;;0.87;100.00;97268.41;12214188;19;20814;-79
2024/01/18 04:06:24;;;;;;;16.60;7.53;;;;;;;0.89;100.00;97279.00;12193936;19;20010;-80
2024/01/18 04:10:26;;;;;;;15.27;7.80;;;;;;;0.82;100.00;97249.38;12215812;19;20007;-80
2024/01/18 04:14:28;;;;;;;21.85;9.27;;;;;;;0.84;100.00;97243.72;12217012;19;20034;-81
2024/01/18 04:18:30;;;;;;;17.30;8.47;;;;;;;0.83;100.00;97239.34;12222312;19;20011;-80
2024/01/18 04:22:33;;;;;;;18.55;8.25;;;;;;;0.90;100.00;97235.38;12207061;19;20014;-80
2024/01/18 04:26:34;;;;;;;;;;;;;;;0.88;100.00;97242.94;12226193;19;20007;-79
2024/01/18 04:30:36;;;;;;;16.95;7.07;;;;;;;0.84;100.00;97258.06;12207879;19;20012;-79
2024/01/18 04:34:38;;;;;;;13.80;7.03;;;;;;;0.83;100.00;97264.56;12224383;19;20011;-80
2024/01/18 04:38:40;;;;;;;19.37;7.27;;;;;;;0.84;100.00;97270.81;12236906;19;19999;-80
2024/01/18 04:42:42;;;;;;;10.52;5.50;;;;;;;0.79;100.00;97284.28;12224550;19;20026;-80
2024/01/18 04:46:44;;;;;;;14.98;6.45;;;;;;;0.76;100.00;97310.00;12256859;19;20506;-81
2024/01/18 04:50:46;;;;;;;16.37;6.83;;;;;;;0.70;100.00;97329.16;12220441;19;20014;-79
2024/01/18 04:54:47;;;;;;;16.40;6.73;;;;;;;0.70;100.00;97334.56;12199989;19;20017;-80
2024/01/18 04:58:50;;;;;;;14.10;6.80;;;;;;;0.73;100.00;97337.59;12230406;19;20026;-80
2024/01/18 05:02:51;;;;;;;14.83;7.07;;;;;;;0.78;100.00;97351.25;12256610;19;20040;-79
2024/01/18 05:06:53;;;;;;;16.08;7.15;;;;;;;0.68;100.00;97322.09;12235492;19;20228;-80
2024/01/18 05:10:55;;;;;;;14.23;5.93;;;;;;;0.67;100.00;97336.69;12253667;19;20058;-80
2024/01/18 05:15:23;;;;;;;9.38;3.97;;;;;;;0.56;100.00;97315.91;12243801;19;20035;-83
2024/01/18 05:19:25;;;;;;;14.50;6.28;;;;;;;0.47;100.00;97317.38;12223662;19;20122;-82
2024/01/18 05:23:27;;;;;;;12.77;5.38;;;;;;;0.37;100.00;97322.66;12253512;19;20063;-81
2024/01/18 05:27:32;;;;;;;11.00;5.60;;;;;;;0.35;100.00;97327.50;12232998;19;20042;-80
2024/01/18 05:31:34;;;;;;;13.55;6.30;;;;;;;0.36;100.00;97350.81;12201894;19;20010;-81
2024/01/18 05:35:35;;;;;;;16.65;6.75;;;;;;;0.42;100.00;97339.00;12220710;19;20011;-79
2024/01/18 05:39:37;;;;;;;11.63;6.07;;;;;;;0.40;100.00;97355.50;12198760;19;20022;-79
2024/01/18 05:43:39;;;;;;;15.07;5.63;;;;;;;0.40;100.00;97363.63;12221998;19;20019;-81
2024/01/18 05:47:41;;;;;;;13.77;6.73;;;;;;;0.35;100.00;97370.84;12220567;19;20331;-82
2024/01/18 05:51:43;;;;;;;14.37;7.00;;;;;;;0.35;100.00;97368.94;12196580;19;20019;-78
2024/01/18 05:55:45;;;;;;;15.37;6.20;;;;;;;0.24;100.00;97356.31;12223092;19;20006;-80
2024/01/18 05:59:47;;;;;;;10.90;4.70;;;;;;;0.16;100.00;97346.66;12230026;19;20011;-82
2024/01/18 06:03:48;;;;;;;15.02;7.10;;;;;;;0.18;100.00;97355.38;12215245;19;20275;-82
2024/01/18 06:07:51;;;;;;;15.50;6.43;;;;;;;0.18;100.00;97347.25;12235910;19;20069;-84
2024/01/18 06:11:54;;;;;;;;;;;;;;;0.21;100.00;97351.38;12248124;19;20015;-83
2024/01/18 06:15:56;;;;;;;12.25;6.18;;;;;;;0.22;100.00;97353.00;12208799;19;19990;-87
2024/01/18 06:19:58;;;;;;;14.50;6.37;;;;;;;0.24;100.00;97356.31;12226425;19;20030;-86
2024/01/18 06:24:01;;;;;;;13.67;4.80;;;;;;;0.20;100.00;97365.97;12233204;19;20003;-87
2024/01/18 06:28:04;;;;;;;14.95;6.28;;;;;;;0.10;100.00;97372.03;12215938;19;20270;-86
2024/01/18 06:32:05;;;;;;;17.27;7.95;;;;;;;0.12;100.00;97377.19;12226466;19;20018;-87
2024/01/18 06:36:09;;;;;;;16.27;6.53;;;;;;;0.05;100.00;97374.63;12227776;19;20006;-89
2024/01/18 06:40:11;;;;;;;13.18;5.72;;;;;;;0.12;100.00;97386.16;12208926;19;20040;-89
2024/01/18 06:44:13;;;;;;;17.80;6.38;;;;;;;0.13;100.00;97392.38;12237199;19;20018;-89
2024/01/18 06:48:15;;;;;;;18.13;7.60;;;;;;;0.14;100.00;97388.59;12238779;19;20017;-88
2024/01/18 06:52:17;;;;;;;14.87;5.97;;;;;;;0.13;100.00;97389.69;12220618;19;20282;-86
2024/01/18 06:56:18;;;;;;;16.17;6.90;;;;;;;0.04;100.00;97394.66;12232312;19;20014;-86
2024/01/18 07:00:23;;;;;;;16.35;6.70;;;;;;;-0.01;100.00;97391.84;12230485;19;20010;-86
2024/01/18 07:04:25;;;;;;;16.17;6.85;;;;;;;-0.03;100.00;97393.94;12211942;19;20014;-86
2024/01/18 07:08:27;;;;;;;17.57;7.07;;;;;;;-0.04;100.00;97403.97;12232777;19;20102;-86
2024/01/18 07:12:30;;;;;;;14.95;6.47;;;;;;;-0.10;100.00;97407.63;12228449;19;20013;-87
2024/01/18 07:16:32;;;;;;;15.43;6.45;;;;;;;-0.15;100.00;97415.69;12214445;19;20006;-87
2024/01/18 07:20:34;;;;;;;11.70;5.47;;;;;;;-0.17;100.00;97425.91;12225711;19;20007;-87
2024/01/18 07:24:36;;;;;;;14.60;6.20;;;;;;;-0.22;100.00;97417.69;12197943;19;20010;-84
2024/01/18 07:28:37;;;;;;;11.23;4.50;;;;;;;-0.25;100.00;97418.97;12214746;19;21331;-83
2024/01/18 07:32:40;;;;;;;15.30;7.72;;;;;;;-0.30;100.00;97420.75;12206690;19;20007;-82
2024/01/18 07:36:43;;;;;;;;;;;;;;;-0.20;100.00;97425.56;12178664;19;20006;-81
2024/01/18 07:40:45;;;;;;;19.80;8.18;;;;;;;-0.28;100.00;97437.56;12189653;19;21273;-82
2024/01/18 07:44:47;;;;;;;21.35;7.95;;;;;;;-0.35;100.00;97445.00;12186219;19;20014;-81
2024/01/18 07:48:48;;;;;;;15.48;6.40;;;;;;;-0.34;100.00;97443.94;12179410;19;20010;-81
2024/01/18 07:52:51;;;;;;;18.00;7.07;;;;;;;-0.32;100.00;97461.59;12199469;19;20054;-82
2024/01/18 07:56:53;;;;;;;11.18;5.90;;;;;;;-0.37;100.00;97466.06;12204811;19;20010;-82
2024/01/18 08:00:56;;;;;;;15.57;7.20;;;;;;;-0.40;100.00;97474.66;12202579;19;20896;-83
2024/01/18 08:04:58;;;;;;;15.20;6.22;;;;;;;-0.48;100.00;97470.41;12214881;19;20007;-83
2024/01/18 08:09:00;;;;;;;15.40;7.03;;;;;;;-0.48;100.00;97468.56;12214399;19;20580;-83
2024/01/18 08:13:02;;;;;;;20.20;7.17;;;;;;;-0.42;100.00;97476.75;12195832;19;20612;-83
2024/01/18 08:17:05;;;;;;;16.33;5.97;;;;;;;-0.49;100.00;97483.13;12206497;19;20073;-83
2024/01/18 08:21:07;;;;;;;12.40;5.65;;;;;;;-0.48;100.00;97495.63;12215260;19;20011;-83
2024/01/18 08:25:11;;;;;;;21.30;7.63;;;;;;;-0.48;100.00;97503.72;12195621;19;20003;-82
2024/01/18 08:29:13;;;;;;;18.80;7.20;;;;;;;-0.52;100.00;97501.72;12212509;19;20133;-82
2024/01/18 08:33:15;;;;;;;13.30;5.30;;;;;;;-0.50;100.00;97503.13;12213269;19;20014;-82
2024/01/18 08:37:17;;;;;;;19.75;7.60;;;;;;;-0.51;100.00;97517.69;12195778;19;20002;-82
2024/01/18 08:41:19;;;;;;;19.30;7.85;;;;;;;-0.52;100.00;97521.47;12220995;19;20054;-81
2024/01/18 08:45:21;;;;;;;14.25;6.47;;;;;;;-0.54;100.00;97523.56;12220154;19;21100;-82
2024/01/18 08:49:26;;;;;;;22.83;7.55;;;;;;;-0.59;100.00;97520.78;12197707;19;20084;-84
2024/01/18 08:53:29;;;;;;;18.58;8.18;;;;;;;-0.58;100.00;97538.63;12212208;19;20046;-87
2024/01/18 08:57:31;;;;;;;20.88;8.82;;;;;;;-0.57;100.00;97536.75;12218427;19;20010;-86
2024/01/18 09:01:33;;;;;;;18.02;6.88;;;;;;;-0.53;100.00;97546.88;12199440;19;20010;-87
2024/01/18 09:05:35;;;;;;;17.53;7.00;;;;;;;-0.52;100.00;97558.53;12227107;19;20027;-84
2024/01/18 09:09:37;;;;;;;22.60;8.50;;;;;;;-0.45;100.00;97572.75;12208302;19;20011;-85
2024/01/18 09:13:40;;;;;;;14.83;7.63;;;;;;;-0.43;100.00;97581.47;12233601;19;19999;-84
2024/01/18 09:17:42;;;;;;;21.00;9.63;;;;;;;-0.36;100.00;97595.69;12226530;19;20010;-84
2024/01/18 09:21:44;;;;;;;32.22;12.32;;;;;;;-0.35;100.00;97600.06;12190473;19;20010;-82
2024/01/18 09:25:47;;;;;;;;;;;;;;;-0.31;100.00;97606.66;12207330;19;20010;-82
2024/01/18 09:29:49;;;;;;;29.35;11.15;;;;;;;-0.34;100.00;97615.25;12214734;19;19911;-82
2024/01/18 09:33:50;;;;;;;20.30;8.90;;;;;;;-0.28;100.00;97618.91;12193739;19;20010;-81
2024/01/18 09:37:52;;;;;;;22.30;9.17;;;;;;;-0.21;100.00;97635.84;12214830;19;20027;-82
2024/01/18 09:41:55;;;;;;;18.10;7.27;;;;;;;-0.12;100.00;97647.16;12217311;19;20009;-83
2024/01/18 09:45:59;;;;;;;27.30;10.55;;;;;;;0.02;100.00;97650.47;12189572;19;20011;-82
2024/01/18 09:50:01;;;;;;;23.55;10.85;;;;;;;0.06;100.00;97655.19;12205569;19;20038;-82
2024/01/18 09:54:03;;;;;;;;;;;;;;;0.03;100.00;97657.53;12203373;19;20502;-82
2024/01/18 09:58:11;;;;;;;20.67;9.15;;;;;;;0.20;100.00;97664.69;12185558;19;19907;-82
2024/01/18 10:02:14;;;;;;;24.13;10.23;;;;;;;0.29;100.00;97678.72;12226454;19;20096;-81
2024/01/18 10:06:17;;;;;;;25.20;10.00;;;;;;;0.39;100.00;97683.56;12232321;19;20007;-82
2024/01/18 10:10:19;;;;;;;20.27;8.93;;;;;;;0.44;100.00;97706.16;12205040;19;20101;-82
2024/01/18 10:14:41;;;;;;;21.77;9.27;;;;;;;0.55;100.00;97704.50;12217043;19;20010;-81
2024/01/18 10:18:44;;;;;;;17.37;7.83;;;;;;;0.66;100.00;97716.41;12191385;19;20011;-81
2024/01/18 10:22:46;;;;;;;24.63;12.80;;;;;;;0.64;100.00;97726.66;12218719;19;20571;-81
2024/01/18 10:27:01;;;;;;;17.90;6.67;;;;;;;0.63;100.00;97735.88;12220947;19;20018;-81
2024/01/18 10:31:03;;;;;;;18.98;9.90;;;;;;;0.67;100.00;97737.84;12190503;19;19998;-81
2024/01/18 10:35:05;;;;;;;23.60;10.07;;;;;;;0.57;100.00;97755.78;12208799;19;20034;-81
2024/01/18 10:39:15;;;;;;;19.33;8.90;;;;;;;0.64;100.00;97767.31;12203565;19;20007;-80
2024/01/18 10:43:17;;;;;;;24.98;10.50;;;;;;;0.63;100.00;97771.09;12197966;19;20019;-83
2024/01/18 10:47:19;;;;;;;24.27;11.07;;;;;;;0.67;100.00;97762.25;12223385;19;20006;-83
2024/01/18 10:51:23;;;;;;;22.83;10.80;;;;;;;0.73;100.00;97765.09;12228425;19;20015;-83
2024/01/18 10:55:25;;;;;;;27.30;10.52;;;;;;;0.99;100.00;97785.47;12201519;19;20002;-83
2024/01/18 10:59:29;;;;;;;28.85;13.20;;;;;;;1.06;100.00;97789.69;12211643;19;20113;-81
2024/01/18 11:03:31;;;;;;;26.10;10.80;;;;;;;1.05;100.00;97793.47;12221209;19;20006;-81
2024/01/18 11:07:34;;;;;;;25.50;10.27;;;;;;;1.10;100.00;97804.44;12171584;19;20013;-83
2024/01/18 11:11:36;;;;;;;29.23;11.90;;;;;;;1.06;100.00;97800.53;12223024;19;20018;-81
2024/01/18 11:15:41;;;;;;;22.55;11.23;;;;;;;1.14;100.00;97815.63;12215136;19;20003;-82
2024/01/18 11:19:45;;;;;;;20.10;9.95;;;;;;;1.19;100.00;97823.88;12226567;19;20007;-82
2024/01/18 11:23:48;;;;;;;28.90;11.13;;;;;;;1.27;100.00;97823.50;12228448;19;20061;-81
2024/01/18 11:27:50;;;;;;;25.10;10.27;;;;;;;1.38;100.00;97826.44;12209854;19;20011;-82
2024/01/18 11:31:52;;;;;;;25.13;10.52;;;;;;;1.55;100.00;97839.03;12236922;19;20040;-81
2024/01/18 11:35:57;;;;;;;21.67;9.88;;;;;;;1.74;100.00;97869.53;12240885;19;20011;-83
2024/01/18 11:39:59;;;;;;;21.73;9.13;;;;;;;1.79;100.00;97844.38;12213736;19;20004;-80
2024/01/18 11:44:07;;;;;;;21.70;9.38;;;;;;;1.97;100.00;97865.94;12229378;19;20020;-82
2024/01/18 11:48:09;;;;;;;17.95;8.05;;;;;;;2.03;100.00;97861.44;12211574;19;20007;-81
2024/01/18 11:52:12;;;;;;;17.40;8.03;;;;;;;2.09;100.00;97863.16;12186103;19;20030;-81
2024/01/18 11:56:15;;;;;;;16.52;7.20;;;;;;;2.17;100.00;97879.09;12208740;19;20010;-83
2024/01/18 12:00:17;;;;;;;17.10;8.77;;;;;;;2.16;100.00;97885.56;12214139;19;20002;-83
2024/01/18 12:04:19;;;;;;;19.05;7.57;;;;;;;2.09;100.00;97882.19;12193445;19;20025;-84
2024/01/18 12:08:21;;;;;;;12.90;5.30;;;;;;;2.07;100.00;97900.59;12216022;19;20002;-81
2024/01/18 12:12:23;;;;;;;17.70;8.77;;;;;;;1.97;100.00;97895.00;12212363;19;20027;-84
2024/01/18 12:16:25;;;;;;;16.60;7.53;;;;;;;2.03;100.00;97907.59;12188976;19;20013;-85
2024/01/18 12:20:27;;;;;;;22.70;8.27;;;;;;;2.07;100.00;97921.53;12213032;19;20411;-83
2024/01/18 12:24:29;;;;;;;17.02;7.68;;;;;;;2.33;100.00;97937.25;12212434;19;20002;-83
2024/01/18 12:28:31;;;;;;;14.60;6.73;;;;;;;2.26;100.00;97940.13;12189468;19;20002;-84
2024/01/18 12:32:35;;;;;;;12.37;6.03;;;;;;;2.53;100.00;97957.72;12214465;19;20161;-83
2024/01/18 12:36:38;;;;;;;28.23;9.80;;;;;;;2.55;100.00;97972.75;12206263;19;19999;-82
2024/01/18 12:40:42;;;;;;;16.42;7.80;;;;;;;2.56;100.00;97987.16;12184977;19;20007;-84
2024/01/18 12:44:45;;;;;;;16.15;6.65;;;;;;;2.62;100.00;97999.81;12207771;19;20015;-85
2024/01/18 12:48:47;;;;;;;15.25;7.22;;;;;;;2.71;100.00;98004.59;12194096;19;20018;-84
2024/01/18 12:52:51;;;;;;;52.72;19.52;;;;;;;2.74;100.00;98017.72;12215971;19;20006;-82
2024/01/18 12:56:58;;;;;;;18.27;8.65;;;;;;;2.63;100.00;98020.47;12205934;19;20002;-84
2024/01/18 13:00:59;;;;;;;15.52;7.80;;;;;;;2.46;100.00;98040.25;12191151;19;20048;-83
2024/01/18 13:05:01;;;;;;;16.10;7.88;;;;;;;2.54;100.00;98030.91;12227257;19;20007;-82
2024/01/18 13:09:07;;;;;;;16.00;6.00;;;;;;;2.64;100.00;98036.53;12228095;19;20015;-83
2024/01/18 13:13:09;;;;;;;43.55;17.95;;;;;;;2.74;100.00;98039.47;12204232;19;20002;-82
2024/01/18 13:17:16;;;;;;;40.65;18.08;;;;;;;2.79;100.00;98052.34;12219077;19;20010;-83
2024/01/18 13:21:18;;;;;;;29.58;12.60;;;;;;;2.69;100.00;98061.13;12223894;19;20013;-84
2024/01/18 13:25:20;;;;;;;36.13;15.93;;;;;;;2.74;100.00;98069.41;12200265;19;20010;-83
2024/01/18 13:29:22;;;;;;;23.35;9.05;;;;;;;2.75;100.00;98083.81;12224112;19;20010;-82
2024/01/18 13:33:24;;;;;;;58.88;25.38;;;;;;;2.82;100.00;98092.66;12227900;19;20010;-84
2024/01/18 13:37:26;;;;;;;13.87;6.30;;;;;;;2.95;100.00;98119.59;12200693;19;20041;-85
2024/01/18 13:41:32;;;;;;;14.05;5.88;;;;;;;3.03;100.00;98133.88;12221881;19;20018;-83
2024/01/18 13:45:33;;;;;;;10.80;4.73;;;;;;;3.06;100.00;98142.38;12223639;19;20050;-84
2024/01/18 13:49:35;;;;;;;12.07;6.20;;;;;;;2.96;100.00;98147.63;12200146;19;20002;-83
2024/01/18 13:53:37;;;;;;;12.37;5.23;;;;;;;3.00;100.00;98159.66;12221271;19;20032;-82
2024/01/18 13:57:39;;;;;;;14.35;6.47;;;;;;;3.06;100.00;98168.75;12215536;19;20003;-83
2024/01/18 14:01:41;;;;;;;14.30;5.47;;;;;;;3.18;100.00;98175.84;12197294;19;20014;-85
2024/01/18 14:05:44;;;;;;;15.40;6.47;;;;;;;3.24;100.00;98184.91;12224960;19;20006;-84
2024/01/18 14:09:46;;;;;;;15.02;5.63;;;;;;;3.24;100.00;98193.06;12234714;19;20014;-84
2024/01/18 14:13:52;;;;;;;12.00;4.65;;;;;;;3.09;100.00;98207.19;12207591;19;20030;-84
2024/01/18 14:17:54;;;;;;;12.60;5.68;;;;;;;3.09;100.00;98215.34;12228616;19;19999;-82
2024/01/18 14:21:55;;;;;;;12.87;3.37;;;;;;;3.01;100.00;98242.16;12212910;19;20007;-82
2024/01/18 14:25:58;;;;;;;11.03;4.10;;;;;;;2.90;100.00;98246.53;12223314;19;20011;-85
2024/01/18 14:30:00;;;;;;;10.70;3.53;;;;;;;2.91;100.00;98256.34;12226660;19;20006;-83
2024/01/18 14:34:03;;;;;;;9.57;3.90;;;;;;;2.77;100.00;98266.66;12200103;19;20007;-84
2024/01/18 14:38:06;;;;;;;;;;;;;;;2.65;100.00;98279.44;12221569;19;20015;-84
2024/01/18 14:42:08;;;;;;;6.90;3.03;;;;;;;2.52;100.00;98304.94;12219556;19;19970;-81
2024/01/18 14:46:10;;;;;;;9.87;3.43;;;;;;;2.39;100.00;98318.75;12201709;19;20011;-82
2024/01/18 14:50:12;;;;;;;13.00;4.32;;;;;;;2.26;100.00;98334.22;12226917;19;20325;-82
2024/01/18 14:54:13;;;;;;;11.07;4.07;;;;;;;2.08;100.00;98347.03;12223316;19;20018;-83
2024/01/18 14:58:15;;;;;;;10.87;5.17;;;;;;;1.90;100.00;98361.47;12196267;19;20011;-81
2024/01/18 15:02:17;;;;;;;13.73;4.65;;;;;;;1.76;100.00;98374.41;12215644;19;20010;-82
2024/01/18 15:06:19;;;;;;;13.60;4.97;;;;;;;1.61;100.00;98385.66;12220677;19;20006;-83
2024/01/18 15:10:21;;;;;;;11.03;4.47;;;;;;;1.51;100.00;98407.06;12204279;19;20105;-83
2024/01/18 15:14:23;;;;;;;11.70;4.10;;;;;;;1.42;100.00;98422.00;12222165;19;20022;-82
2024/01/18 15:18:25;;;;;;;13.02;4.63;;;;;;;1.32;100.00;98442.34;12209979;19;20017;-82
2024/01/18 15:22:27;;;;;;;14.13;5.40;;;;;;;1.25;100.00;98455.16;12192368;19;20064;-82
2024/01/18 15:26:29;;;;;;;16.30;5.50;;;;;;;1.18;100.00;98451.66;12210008;19;20122;-81
2024/01/18 15:30:31;;;;;;;22.33;6.88;;;;;;;1.09;100.00;98455.69;12211160;19;20395;-80
2024/01/18 15:34:33;;;;;;;13.03;5.87;;;;;;;1.02;100.00;98477.47;12190591;19;20444;-83
2024/01/18 15:38:36;;;;;;;14.85;6.82;;;;;;;0.87;100.00;98483.22;12228859;19;20010;-81
2024/01/18 15:42:39;;;;;;;15.02;6.43;;;;;;;0.83;100.00;98498.28;12218934;19;20006;-79
2024/01/18 15:46:47;;;;;;;15.25;6.57;;;;;;;0.72;100.00;98507.09;12195634;19;20010;-82
2024/01/18 15:50:49;;;;;;;20.20;7.78;;;;;;;0.61;100.00;98507.78;12215811;19;20462;-83
2024/01/18 15:54:51;;;;;;;27.00;11.15;;;;;;;0.50;100.00;98503.88;12212065;19;20379;-82
2024/01/18 15:58:52;;;;;;;21.20;9.27;;;;;;;0.49;100.00;98520.38;12190724;19;20094;-81
2024/01/18 16:02:54;;;;;;;21.47;8.10;;;;;;;0.43;100.00;98524.78;12215306;19;20010;-83
2024/01/18 16:06:56;;;;;;;16.70;7.40;;;;;;;0.43;100.00;98546.44;12216551;19;20019;-83
2024/01/18 16:10:59;;;;;;;;;;;;;;;0.36;100.00;98568.16;12222771;19;20006;-83
2024/01/18 16:15:04;;;;;;;21.05;7.95;;;;;;;0.29;100.00;98580.88;12236316;19;19915;-83
2024/01/18 16:19:06;;;;;;;;;;;;;;;0.23;100.00;98584.44;12202418;19;20466;-83
2024/01/18 16:23:08;;;;;;;23.25;8.35;;;;;;;0.15;100.00;98587.38;12215662;19;19918;-83
2024/01/18 16:27:10;;;;;;;23.93;9.43;;;;;;;0.12;100.00;98604.06;12214334;19;20354;-82
2024/01/18 16:31:11;;;;;;;19.70;8.37;;;;;;;0.06;100.00;98613.91;12190276;19;20039;-82
2024/01/18 16:35:14;;;;;;;21.75;8.45;;;;;;;-0.01;100.00;98629.31;12207648;19;20840;-80
2024/01/18 16:39:16;;;;;;;16.20;7.00;;;;;;;-0.04;100.00;98646.81;12208086;19;20034;-83
2024/01/18 16:43:18;;;;;;;25.27;8.77;;;;;;;-0.04;100.00;98668.47;12185918;19;20493;-82
2024/01/18 16:47:20;;;;;;;19.77;7.80;;;;;;;-0.07;100.00;98690.56;12206011;19;20128;-83
2024/01/18 16:51:21;;;;;;;26.27;9.77;;;;;;;-0.07;100.00;98704.09;12192514;19;21004;-82
2024/01/18 16:55:23;;;;;;;26.00;9.50;;;;;;;-0.10;100.00;98714.50;12174762;19;20081;-81
2024/01/18 16:59:25;;;;;;;19.10;9.77;;;;;;;-0.14;100.00;98730.34;12194998;19;20010;-80
2024/01/18 17:03:27;;;;;;;23.50;9.18;;;;;;;-0.17;100.00;98740.78;12196539;19;20279;-82
2024/01/18 17:07:29;;;;;;;17.88;9.52;;;;;;;-0.20;100.00;98758.25;12174077;19;20010;-81
2024/01/18 17:11:31;;;;;;;25.07;10.90;;;;;;;-0.26;100.00;98775.31;12198124;19;20014;-83
2024/01/18 17:15:33;;;;;;;28.53;10.03;;;;;;;-0.30;100.00;98780.31;12196353;19;20465;-83
2024/01/18 17:19:35;;;;;;;29.80;11.43;;;;;;;-0.33;100.00;98790.69;12172942;19;20027;-82
2024/01/18 17:23:38;;;;;;;24.80;11.88;;;;;;;-0.39;100.00;98805.06;12194801;19;20010;-81
2024/01/18 17:27:40;;;;;;;34.22;12.30;;;;;;;-0.44;100.00;98818.38;12196471;19;20006;-83
2024/01/18 17:31:43;;;;;;;17.57;9.20;;;;;;;-0.53;100.00;98823.13;12176035;19;20018;-82
2024/01/18 17:35:45;;;;;;;29.42;12.40;;;;;;;-0.57;100.00;98843.50;12193651;19;20007;-81
2024/01/18 17:39:47;;;;;;;44.80;13.82;;;;;;;-0.66;100.00;98848.25;12195962;19;20474;-83
2024/01/18 17:43:49;;;;;;;28.33;13.30;;;;;;;-0.70;100.00;98866.75;12173714;19;20594;-81
2024/01/18 17:47:51;;;;;;;34.20;13.60;;;;;;;-0.75;100.00;98880.03;12198997;19;20470;-83
2024/01/18 17:51:54;;;;;;;29.20;14.50;;;;;;;-0.82;100.00;98887.28;12208970;19;20013;-82
2024/01/18 17:55:58;;;;;;;33.40;13.67;;;;;;;-0.80;100.00;98898.75;12188064;19;20010;-79
2024/01/18 18:00:02;;;;;;;24.65;12.10;;;;;;;-0.72;100.00;98895.88;12213693;19;20017;-81
2024/01/18 18:04:12;;;;;;;26.42;10.98;;;;;;;-0.69;100.00;98909.00;12189916;19;19999;-82
2024/01/18 18:08:14;;;;;;;29.13;11.80;;;;;;;-0.62;100.00;98914.47;12208480;19;20002;-82
2024/01/18 18:12:16;;;;;;;31.75;12.93;;;;;;;-0.52;100.00;98925.75;12221457;19;20006;-82
2024/01/18 18:16:19;;;;;;;28.30;11.30;;;;;;;-0.48;100.00;98928.88;12194560;19;20014;-81
2024/01/18 18:20:20;;;;;;;33.05;11.77;;;;;;;-0.50;100.00;98931.81;12212360;19;20022;-80
2024/01/18 18:24:22;;;;;;;33.80;12.17;;;;;;;-0.48;100.00;98950.53;12210952;19;20011;-84
2024/01/18 18:28:24;;;;;;;25.53;12.33;;;;;;;-0.41;100.00;98961.44;12195729;19;20014;-80
2024/01/18 18:32:26;;;;;;;30.33;12.77;;;;;;;-0.51;100.00;98954.47;12211716;19;20006;-79